默认 日期 大小 文件数 浏览量 最新下载 xml
23 10 23磁力链接相关资源由用户搜索指令自动获取,结果来源于网络,本站不存储任何资料,亦不承担任何责任,请于24小时内删除,搜索到38557个磁力,显示前4000条数据,用时60ms。
    {"Donate.url": 127, "Download 720p & 1080p HEVC porn [PornRips.to].url": 110, "Nubiles.19.10.23.Chloe.Temple.Chloes.Temple.XXX.720p.HEVC.x265.PRT.mp4": 99526108}
创建时间: 2019-10-25 14:02:50 大小:94.92 MB 文件数量:3 热度:4 最近下载:2024-02-11 14:52:02
    {"Sample": {"aunt.19.10.23.marta.gets.a.checkup.from.a.horny.doctor-sample.mp4": 56162586}, "[XvX]endorsed by torrentgalaxy.to .nfo": 690, "aunt.19.10.23.marta.gets.a.checkup.from.a.horny.doctor.mp4": 1504789884}
创建时间: 2019-10-25 14:21:01 大小:1.45 GB 文件数量:3 热度:13 最近下载:2025-06-27 20:40:02
    {"Provided by torrentgalaxy.to .nfo": 690, "MassageRooms.19.10.23.Melody.Petite.XXX.720p.WEB.x264-GalaXXXy.mkv": 224391548}
创建时间: 2019-10-25 14:59:34 大小:214 MB 文件数量:2 热度:8 最近下载:2024-04-09 22:07:03
    {"Sample": {"gloryholesecrets.19.10.23.angel.lover.first.glory.hole.pov-sample.mp4": 51403226}, "[XvX]endorsed by torrentgalaxy.to .nfo": 690, "gloryholesecrets.19.10.23.angel.lover.first.glory.hole.pov.mp4": 1135142878}
创建时间: 2019-10-25 15:32:55 大小:1.11 GB 文件数量:3 热度:7 最近下载:2025-03-06 21:27:02
    {"lang": {"readme.txt": 1978, "main-en.pot": 605649, "main-fr.pot": 405509, "settings.json": 122}, "Redist": {"vcredist_x64.exe": 5673816, "vcredist_x86.exe": 4995416, "vc_redist.x644.exe": 14572000, "vc_redist.x864.exe": 13767776}, "res.pak": 578948762, " ...
创建时间: 2019-10-25 15:50:46 大小:626.76 MB 文件数量:113 热度:3 最近下载:2022-11-12 10:43:38
    {"RARBG.txt": 30, "RARBG_DO_NOT_MIRROR.exe": 99, "atkgirlfriends.19.10.23.paris.white.4k.mp4": 1799930700, "atkgirlfriends.19.10.23.paris.white.4k.nfo": 5195}
创建时间: 2019-10-25 16:51:29 大小:1.68 GB 文件数量:4 热度:11 最近下载:2024-03-30 23:02:02
    {"wetandpuffy.19.10.23.tiny.tina.tiny.but.tasty[XoX].mp4": 1095455052}
创建时间: 2019-10-25 16:56:19 大小:1.02 GB 文件数量:1 热度:19 最近下载:2025-03-22 06:58:01
    {"Sample": {"wetandpuffy.19.10.23.tiny.tina.tiny.but.tasty-sample.mp4": 59545174}, "[XvX]endorsed by torrentgalaxy.to .nfo": 690, "wetandpuffy.19.10.23.tiny.tina.tiny.but.tasty.mp4": 1095455052}
创建时间: 2019-10-25 16:56:23 大小:1.08 GB 文件数量:3 热度:16 最近下载:2025-02-04 06:29:03
    {"RARBG.txt": 30, "RARBG_DO_NOT_MIRROR.exe": 99, "watch.what.happens.live.2019.10.23.jenna.dewan.and.dandra.simmons.720p.web.x264-tbs.mkv": 435234570, "watch.what.happens.live.2019.10.23.jenna.dewan.and.dandra.simmons.720p.web.x264-tbs.nfo": 95}
创建时间: 2019-10-25 17:29:54 大小:415.07 MB 文件数量:4 热度:5 最近下载:2022-11-15 19:02:36
    {"Donate.url": 127, "Download 720p & 1080p HEVC porn [PornRips.to].url": 110, "WankItNow.19.10.23.Selene.Naughty.For.A.Good.Cause.XXX.720p.HEVC.x265.PRT.mp4": 68056200}
创建时间: 2019-10-25 17:54:54 大小:64.9 MB 文件数量:3 热度:5 最近下载:2024-02-11 14:52:02
    {"Donate.url": 127, "Download 720p & 1080p HEVC porn [PornRips.to].url": 110, "WankItNow.19.10.23.Selene.Naughty.For.A.Good.Cause.XXX.1080p.HEVC.x265.PRT.mp4": 115791552}
创建时间: 2019-10-25 17:57:55 大小:110.43 MB 文件数量:3 热度:3 最近下载:2022-11-12 12:54:28
    {"img5.jpg": 205322, "TeamSkeetSelects.19.10.23.Best.Of.Stepsiblings.2.XXX.720p.WEB.x264-GalaXXXy.mkv": 369105973, "TeamSkeetSelects.19.10.23.Best.Of.Stepsiblings.2.XXX.720p.WEB.x264-GalaXXXy.mkv_snapshot_01.33_[2019.10.23_21.38.19].jpg": 128437}
创建时间: 2019-10-25 17:59:38 大小:352.33 MB 文件数量:3 热度:7 最近下载:2024-12-17 15:37:02
    ... "MetArt_Morning-Glow_Kenya_high_0091.jpg": 1880310}, "2019-10-23 Suzanna A - Autumn Hay [120 ... Hay_Suzanna-A_high_0120.jpg": 5450308}, "2019-10-23 Nora Pace - Flapper Dress [ ... Dress_Nora-Pace_high_0120.jpg": 1036016}, "2019-10-23 Liv Wild - Presenting Liv Wild ...
创建时间: 2019-10-25 18:19:14 大小:1.35 GB 文件数量:459 热度:11 最近下载:2022-11-15 19:30:11
    {"RARBG.txt": 30, "RARBG_DO_NOT_MIRROR.exe": 99, "WankItNow.19.10.23.Amber.Deen.Fuck.Me.Tonight.XXX.SD.MP4-KLEENEX.mp4": 132761035}
创建时间: 2019-10-25 18:57:52 大小:126.61 MB 文件数量:3 热度:5 最近下载:2024-08-01 10:48:02
    ... .txt": 85, "James.Corden.2019.10.23.Demi.Moore.1080p.HEVC.x265 ... .mkv": 501587654, "James.Corden.2019.10.23.Demi.Moore.1080p.HEVC.x265 ...
创建时间: 2019-10-25 18:58:52 大小:499.19 MB 文件数量:6 热度:9 最近下载:2025-01-09 01:24:02
    {"RARBG.txt": 30, "RARBG_DO_NOT_MIRROR.exe": 99, "seth.meyers.2019.10.23.jessica.biel.repack.1080p.web.h264-tbs.mkv": 1871184432, "seth.meyers.2019.10.23.jessica.biel.repack.1080p.web.h264-tbs.nfo": 118}
创建时间: 2019-10-25 19:04:22 大小:1.74 GB 文件数量:4 热度:7 最近下载:2025-03-31 17:30:01
    {"Donate.url": 127, "Download 720p & 1080p HEVC porn [PornRips.to].url": 110, "GloryHoleSecrets.19.10.23.Angel.Lover.First.Glory.Hole.POV.XXX.720p.HEVC.x265.PRT.mp4": 160489158}
创建时间: 2019-10-25 19:23:40 大小:153.05 MB 文件数量:3 热度:6 最近下载:2024-02-11 14:52:02
    {"G.I. Joe 002 (2019) (Digital-Empire).cbr": 38417451, "[TGx]Downloaded from torrentgalaxy.org .txt": 690, "Lola XOXO v3 003 (2019) (Digital-Empire).cbr": 49326065, "[GetComics]Downloaded from GetComics.INFO.txt": 38, "Angel 006 (2019) (Digital) (Kileko- ...
创建时间: 2019-10-25 19:26:22 大小:1.43 GB 文件数量:28 热度:5 最近下载:2025-02-26 08:34:01
    {"bangbus.19.10.23.leila.larocco.mp4": 516552688}
创建时间: 2019-10-25 19:30:05 大小:492.62 MB 文件数量:1 热度:7 最近下载:2022-11-15 20:37:37
    {"DJI_0001.MOV": 1322400679, "DJI_0002.MOV": 89412598, "DJI_0003.MOV": 856623606, "DJI_0004.MOV": 1764579967, "DJI_0005.MOV": 1031101814, "DJI_0007.MOV": 1481644429, "DJI_0008.MOV": 879766444, "DJI_0009.MOV": 499938167}
创建时间: 2019-10-25 19:33:26 大小:7.38 GB 文件数量:8 热度:5 最近下载:2024-07-03 04:26:01